Time;durP1;ratioP1;P1;durP2;ratioP2;P2;SDS_P1;SDS_P2;PMS_P1;PMS_P2;Temp;Humidity;BMP_temperature;BMP_pressure;BME280_temperature;BME280_humidity;BME280_pressure;Samples;Min_cycle;Max_cycle;Signal;HPM_P1;HPM_P2
2022/06/23 00:01:18;;;;;;;5.68;1.30;;;;;;;25.59;30.73;98248.06;4996097;28;20038;-72
2022/06/23 00:03:44;;;;;;;2.90;1.20;;;;;;;25.59;30.57;98253.41;5012113;28;20150;-71
2022/06/23 00:06:22;;;;;;;3.88;1.42;;;;;;;25.55;29.90;98249.53;4996110;28;20033;-71
2022/06/23 00:08:47;;;;;;;4.15;1.42;;;;;;;25.50;29.99;98244.06;4996561;28;20061;-71
2022/06/23 00:11:22;;;;;;;3.70;1.60;;;;;;;25.52;29.87;98256.16;5012304;28;20038;-72
2022/06/23 00:13:48;;;;;;;4.63;1.30;;;;;;;25.54;29.84;98269.28;5012123;28;20046;-73
2022/06/23 00:16:25;;;;;;;8.15;1.25;;;;;;;25.53;30.48;98256.97;4995985;28;20041;-71
2022/06/23 00:18:50;;;;;;;2.87;1.40;;;;;;;25.53;30.14;98259.66;4995779;28;20053;-73
2022/06/23 00:21:29;;;;;;;6.10;1.33;;;;;;;25.52;29.71;98252.66;5013287;28;20117;-72
2022/06/23 00:23:59;;;;;;;3.22;1.30;;;;;;;25.54;29.62;98243.41;4996469;28;20029;-72
2022/06/23 00:26:29;;;;;;;2.72;1.20;;;;;;;25.57;29.54;98250.97;5012071;28;20485;-72
2022/06/23 00:29:04;;;;;;;3.10;1.17;;;;;;;25.57;29.36;98247.47;5012239;28;20401;-73
2022/06/23 00:31:38;;;;;;;6.47;1.50;;;;;;;25.54;29.43;98237.22;5012000;28;20445;-73
2022/06/23 00:34:23;;;;;;;5.45;1.52;;;;;;;25.53;30.55;98224.91;4995617;28;20033;-73
2022/06/23 00:36:52;;;;;;;3.03;1.40;;;;;;;25.55;29.81;98237.00;4996965;28;20417;-73
2022/06/23 00:39:42;;;;;;;5.22;1.50;;;;;;;25.55;29.68;98233.50;5028170;28;20385;-79
2022/06/23 00:42:46;;;;;;;4.32;1.45;;;;;;;25.55;29.83;98239.66;4997616;28;20065;-78
2022/06/23 00:45:12;;;;;;;5.63;1.80;;;;;;;25.58;29.33;98243.75;4997728;28;20503;-77
2022/06/23 00:47:45;;;;;;;5.95;1.75;;;;;;;25.59;29.27;98237.38;5028403;28;20041;-77
2022/06/23 00:50:35;;;;;;;4.10;1.50;;;;;;;25.59;29.52;98238.19;5011922;28;20026;-77
2022/06/23 00:53:12;;;;;;;4.88;1.20;;;;;;;25.60;28.96;98228.28;5013079;28;20092;-77
2022/06/23 00:55:52;;;;;;;8.23;1.45;;;;;;;25.57;29.27;98231.41;5028591;28;20025;-77
2022/06/23 00:58:24;;;;;;;5.93;1.60;;;;;;;25.56;29.10;98237.81;5028364;28;20041;-76
2022/06/23 01:00:53;;;;;;;3.42;1.20;;;;;;;25.58;28.95;98223.19;5013315;28;20022;-76
2022/06/23 01:03:22;;;;;;;4.53;1.48;;;;;;;25.63;28.84;98217.16;4995594;28;20045;-75
2022/06/23 01:05:59;;;;;;;3.60;1.00;;;;;;;25.66;28.74;98224.72;4995752;28;20026;-77
2022/06/23 01:08:32;;;;;;;5.32;1.40;;;;;;;25.65;28.43;98228.44;5011511;28;20053;-77
2022/06/23 01:11:14;;;;;;;3.80;1.38;;;;;;;25.68;28.63;98237.84;5011573;28;20025;-78
2022/06/23 01:13:57;;;;;;;5.30;1.20;;;;;;;25.70;28.70;98243.81;5011649;28;20041;-77
2022/06/23 01:16:29;;;;;;;7.13;1.20;;;;;;;25.69;28.48;98237.63;5011354;28;20065;-76
2022/06/23 01:18:57;;;;;;;2.67;1.10;;;;;;;25.71;28.35;98240.88;4995979;28;20055;-78
2022/06/23 01:21:25;;;;;;;5.32;1.10;;;;;;;25.70;28.54;98238.47;5013115;28;20100;-76
2022/06/23 01:24:06;;;;;;;;;;;;;;;25.67;28.29;98234.38;5011667;28;20030;-76
2022/06/23 01:27:03;;;;;;;3.20;1.13;;;;;;;25.65;28.40;98231.13;5013115;28;19917;-78
2022/06/23 01:29:32;;;;;;;4.10;1.10;;;;;;;25.66;28.56;98238.09;4971916;28;20039;-77
2022/06/23 01:32:21;;;;;;;4.28;1.25;;;;;;;25.67;28.52;98236.25;4971446;28;20041;-77
2022/06/23 01:34:57;;;;;;;5.60;1.60;;;;;;;25.58;28.78;98230.38;4971621;28;20138;-78
2022/06/23 01:37:27;;;;;;;4.38;1.40;;;;;;;25.51;28.55;98233.16;4971326;28;20039;-78
2022/06/23 01:40:09;;;;;;;3.65;1.38;;;;;;;25.47;28.88;98226.63;4971181;28;20043;-77
2022/06/23 01:42:46;;;;;;;5.15;1.48;;;;;;;25.38;28.78;98233.31;4971649;28;20512;-77
2022/06/23 01:45:27;;;;;;;3.40;1.25;;;;;;;25.41;29.36;98239.03;4971500;28;20593;-76
2022/06/23 01:48:51;;;;;;;5.68;1.33;;;;;;;25.41;29.04;98241.72;4971287;28;20038;-75
2022/06/23 01:51:06;;;;;;;2.22;0.90;;;;;;;25.32;29.42;98227.03;4971103;28;20077;-77
2022/06/23 01:53:33;;;;;;;3.13;1.13;;;;;;;25.30;29.47;98229.09;4955053;28;20457;-77
2022/06/23 01:56:34;;;;;;;6.28;1.13;;;;;;;25.22;29.21;98250.75;4957809;28;20521;-78
2022/06/23 01:59:03;;;;;;;4.55;1.23;;;;;;;25.16;29.34;98243.63;4974837;28;20031;-77
2022/06/23 02:01:30;;;;;;;;;;;;;;;25.16;29.14;98247.13;4975588;28;20027;-76
2022/06/23 02:04:05;;;;;;;4.80;1.03;;;;;;;25.05;29.40;98245.22;4974964;28;20012;-77
2022/06/23 02:06:37;;;;;;;4.55;1.10;;;;;;;25.04;29.57;98248.91;5006305;28;20037;-77
2022/06/23 02:09:10;;;;;;;2.65;1.10;;;;;;;24.99;29.37;98244.22;5015036;28;20417;-77
2022/06/23 02:11:35;;;;;;;3.63;1.10;;;;;;;25.04;29.80;98248.91;4998634;28;20392;-77
2022/06/23 02:14:09;;;;;;;4.03;1.25;;;;;;;25.08;29.41;98250.91;5031176;28;20038;-77
2022/06/23 02:16:52;;;;;;;2.63;1.00;;;;;;;25.10;28.68;98248.03;5015130;28;20115;-78
2022/06/23 02:19:20;;;;;;;4.32;1.30;;;;;;;24.95;29.69;98263.59;5014988;28;20046;-76
2022/06/23 02:22:09;;;;;;;2.42;1.20;;;;;;;24.79;30.52;98244.44;5014352;28;20029;-76
2022/06/23 02:24:45;;;;;;;4.78;1.35;;;;;;;24.69;30.33;98241.47;5014142;28;20548;-78
2022/06/23 02:27:42;;;;;;;2.40;1.13;;;;;;;24.72;30.64;98257.03;4998054;28;20116;-79
2022/06/23 02:30:19;;;;;;;4.18;1.23;;;;;;;24.63;31.02;98253.84;5014673;28;20057;-79
2022/06/23 02:33:13;;;;;;;5.97;1.45;;;;;;;24.64;31.43;98249.34;4999285;28;20033;-78
2022/06/23 02:35:51;;;;;;;4.47;1.10;;;;;;;24.64;31.01;98244.81;5015705;28;20061;-77
2022/06/23 02:38:39;;;;;;;3.42;1.38;;;;;;;24.68;30.85;98251.31;5014493;28;20022;-78
2022/06/23 02:41:13;;;;;;;15.93;1.50;;;;;;;24.69;31.14;98263.63;5014623;28;20092;-78
2022/06/23 02:43:44;;;;;;;4.47;1.40;;;;;;;24.64;31.33;98252.81;4997242;28;20041;-77
2022/06/23 02:47:00;;;;;;;3.95;1.17;;;;;;;24.56;31.37;98263.72;5014071;28;20034;-78
2022/06/23 02:49:59;;;;;;;6.30;1.17;;;;;;;24.55;31.97;98267.44;4974035;28;20039;-78
2022/06/23 02:52:33;;;;;;;3.97;1.10;;;;;;;24.58;31.83;98267.03;4973826;28;20077;-78
2022/06/23 02:55:32;;;;;;;5.45;1.10;;;;;;;24.54;32.00;98277.28;4957910;28;20126;-78
2022/06/23 02:58:00;;;;;;;4.20;1.15;;;;;;;24.54;30.80;98279.13;4935062;29;20040;-78
2022/06/23 03:00:50;;;;;;;1.73;1.00;;;;;;;24.57;30.73;98273.38;4935399;29;20032;-77
2022/06/23 03:03:33;;;;;;;5.97;1.23;;;;;;;24.58;30.70;98260.88;4935495;29;20050;-76
2022/06/23 03:06:02;;;;;;;4.80;1.20;;;;;;;24.47;30.49;98260.50;4935701;29;20507;-81
2022/06/23 03:09:05;;;;;;;2.45;1.10;;;;;;;24.44;31.35;98260.94;4934473;29;20047;-79
2022/06/23 03:11:54;;;;;;;2.40;1.10;;;;;;;24.41;31.83;98252.56;4934123;29;20039;-77
2022/06/23 03:14:58;;;;;;;4.85;1.27;;;;;;;24.38;31.81;98252.00;4917977;29;20115;-78
2022/06/23 03:17:40;;;;;;;3.90;1.15;;;;;;;24.37;32.39;98261.00;4933910;29;20507;-80
2022/06/23 03:20:18;;;;;;;2.58;1.10;;;;;;;24.25;32.37;98264.59;4934272;29;20043;-70
2022/06/23 03:22:46;;;;;;;;;;;;;;;24.29;33.10;98273.78;4934442;29;20032;-70
2022/06/23 03:25:11;;;;;;;5.05;1.52;;;;;;;24.26;33.71;98274.22;4963346;28;20411;-68
2022/06/23 03:27:41;;;;;;;5.85;1.30;;;;;;;24.22;34.55;98273.84;4991503;28;20113;-73
2022/06/23 03:30:22;;;;;;;8.70;1.60;;;;;;;24.67;35.22;98273.72;4975408;28;20105;-72
2022/06/23 03:33:00;;;;;;;4.35;1.58;;;;;;;25.02;34.12;98280.38;4976199;28;20038;-72
2022/06/23 03:35:36;;;;;;;3.42;1.23;;;;;;;25.28;33.88;98273.91;4989309;28;20038;-65
2022/06/23 03:38:14;;;;;;;3.20;1.48;;;;;;;25.32;33.14;98276.94;5012018;28;20033;-69
2022/06/23 03:43:55;;;;;;;4.20;1.42;;;;;;;25.31;33.09;98288.69;4998282;28;20045;-67
2022/06/23 03:46:24;;;;;;;3.58;1.55;;;;;;;25.30;33.11;98290.53;4994800;28;20088;-68
2022/06/23 03:48:50;;;;;;;3.88;1.40;;;;;;;25.32;33.09;98292.97;4995785;28;20404;-67
2022/06/23 03:51:22;;;;;;;2.50;1.45;;;;;;;25.31;33.37;98289.50;4995241;28;20137;-67
2022/06/23 03:54:00;;;;;;;4.72;1.40;;;;;;;25.33;33.31;98300.78;4995785;28;20026;-67
2022/06/23 03:56:28;;;;;;;2.45;1.30;;;;;;;25.35;32.98;98303.22;4995250;28;20034;-67
2022/06/23 03:59:08;;;;;;;2.65;1.10;;;;;;;25.42;33.28;98322.69;4995476;28;20064;-67
2022/06/23 04:01:38;;;;;;;3.80;1.20;;;;;;;25.45;32.95;98312.34;4996263;28;20410;-67
2022/06/23 04:04:12;;;;;;;3.28;1.10;;;;;;;25.54;33.23;98312.88;4995501;28;20096;-67
2022/06/23 04:06:41;;;;;;;3.28;1.40;;;;;;;25.60;32.93;98313.81;4995134;28;20125;-67
2022/06/23 04:09:17;;;;;;;7.13;1.30;;;;;;;25.69;32.18;98317.81;4939031;28;1647120;-66
2022/06/23 04:11:46;;;;;;;4.50;1.30;;;;;;;25.79;31.90;98328.81;5012230;28;20041;-66
2022/06/23 04:14:14;;;;;;;2.45;1.30;;;;;;;25.99;31.03;98338.44;5013446;28;20040;-67
2022/06/23 04:16:39;;;;;;;3.03;1.20;;;;;;;26.12;31.19;98340.91;5028563;28;20025;-65
2022/06/23 04:19:15;;;;;;;2.08;1.10;;;;;;;26.33;30.34;98336.91;4995382;28;20038;-68
2022/06/23 04:21:45;;;;;;;5.15;1.45;;;;;;;26.36;30.54;98339.13;4996268;28;20034;-66
2022/06/23 04:24:15;;;;;;;3.95;1.25;;;;;;;26.47;30.03;98336.69;5011958;28;20053;-67
2022/06/23 04:26:42;;;;;;;3.67;1.23;;;;;;;26.47;30.07;98332.19;4995831;28;20374;-66
2022/06/23 04:29:09;;;;;;;6.53;1.60;;;;;;;26.58;29.72;98335.09;4995326;28;20045;-66
2022/06/23 04:31:36;;;;;;;2.45;1.20;;;;;;;26.77;29.42;98331.28;5012004;28;20404;-66
2022/06/23 04:34:02;;;;;;;3.20;1.25;;;;;;;27.82;28.61;98339.44;4995410;28;20053;-66
2022/06/23 04:36:30;;;;;;;3.47;1.25;;;;;;;28.40;27.87;98337.56;4995543;28;20058;-67
2022/06/23 04:39:00;;;;;;;3.10;1.02;;;;;;;28.39;28.45;98335.94;4995575;28;20196;-66
2022/06/23 04:41:35;;;;;;;4.57;1.30;;;;;;;28.01;29.19;98339.28;5012087;28;20030;-66
2022/06/23 04:44:02;;;;;;;2.72;1.10;;;;;;;27.85;29.52;98349.69;5011522;28;20041;-66
2022/06/23 04:46:38;;;;;;;5.28;1.30;;;;;;;27.77;29.85;98342.84;4995795;28;20065;-67
2022/06/23 04:49:07;;;;;;;2.72;1.00;;;;;;;27.66;30.02;98327.63;4995290;28;20038;-67
2022/06/23 04:51:38;;;;;;;3.55;1.40;;;;;;;27.58;30.32;98334.16;5012292;28;20038;-67
2022/06/23 04:54:12;;;;;;;5.13;1.40;;;;;;;27.56;30.56;98338.94;4995451;28;20034;-67
2022/06/23 04:56:42;;;;;;;5.90;1.58;;;;;;;27.52;30.58;98335.09;5027929;28;20030;-68
2022/06/23 04:59:34;;;;;;;3.28;1.23;;;;;;;27.48;31.51;98343.84;4995086;28;20026;-67
2022/06/23 05:02:27;;;;;;;2.97;1.35;;;;;;;27.46;31.42;98343.28;5012407;28;20045;-67
2022/06/23 05:05:13;;;;;;;5.13;1.48;;;;;;;27.50;30.96;98345.25;5013468;28;20486;-66
2022/06/23 05:07:42;;;;;;;3.85;1.50;;;;;;;27.57;30.45;98342.44;4996323;28;20038;-67
2022/06/23 05:10:32;;;;;;;6.38;1.30;;;;;;;27.58;30.56;98336.84;5027783;28;20081;-68
2022/06/23 05:13:01;;;;;;;5.50;1.30;;;;;;;27.54;30.58;98349.06;4997144;28;20038;-67
2022/06/23 05:16:01;;;;;;;6.13;2.38;;;;;;;27.51;30.55;98352.22;4995848;28;20244;-67
2022/06/23 05:18:28;;;;;;;4.82;2.20;;;;;;;27.49;30.74;98354.34;4994870;28;20034;-67
2022/06/23 05:21:04;;;;;;;6.57;2.65;;;;;;;27.50;30.86;98374.75;4995548;28;20034;-67
2022/06/23 05:23:39;;;;;;;7.55;2.13;;;;;;;27.47;30.60;98377.06;4995726;28;20026;-68
2022/06/23 05:26:08;;;;;;;5.35;2.03;;;;;;;27.43;31.45;98372.16;4996190;28;20038;-68
2022/06/23 05:28:36;;;;;;;3.83;1.75;;;;;;;27.39;31.52;98368.34;4994754;28;20179;-67
2022/06/23 05:31:04;;;;;;;9.05;1.83;;;;;;;27.33;31.86;98360.44;4998066;28;20029;-67
2022/06/23 05:33:35;;;;;;;2.80;1.50;;;;;;;27.33;31.87;98357.75;4998893;28;20030;-68
2022/06/23 05:36:19;;;;;;;6.85;1.77;;;;;;;27.29;31.61;98357.38;4999574;28;20037;-68
2022/06/23 05:39:14;;;;;;;6.70;1.45;;;;;;;27.26;32.49;98366.72;4999675;28;20022;-67
2022/06/23 05:41:42;;;;;;;8.00;1.48;;;;;;;27.22;32.07;98372.75;5015372;28;20044;-66
2022/06/23 05:44:18;;;;;;;6.93;1.67;;;;;;;27.16;32.19;98377.19;5014984;28;20022;-68
2022/06/23 05:46:44;;;;;;;3.70;1.23;;;;;;;27.11;32.23;98373.59;4999718;28;20037;-68
2022/06/23 05:49:14;;;;;;;7.85;1.55;;;;;;;27.12;31.55;98393.94;5014966;28;20026;-67
2022/06/23 05:52:14;;;;;;;3.35;1.30;;;;;;;27.10;31.53;98394.19;5014850;28;20045;-68
2022/06/23 05:54:59;;;;;;;3.40;1.40;;;;;;;27.08;32.03;98386.38;4958611;28;20047;-69
2022/06/23 05:57:41;;;;;;;4.80;1.40;;;;;;;27.06;31.90;98377.78;4974833;28;20050;-67
2022/06/23 06:00:25;;;;;;;4.78;1.60;;;;;;;27.05;31.13;98381.47;4974868;28;20023;-68
2022/06/23 06:02:59;;;;;;;3.92;1.38;;;;;;;27.09;31.27;98381.84;4974944;28;20522;-67
2022/06/23 06:05:41;;;;;;;3.33;1.30;;;;;;;27.11;31.40;98379.75;4974605;28;20050;-68
2022/06/23 06:08:16;;;;;;;6.25;1.10;;;;;;;27.11;31.66;98369.03;4974391;28;20057;-66
2022/06/23 06:10:42;;;;;;;5.50;1.20;;;;;;;27.19;31.42;98365.19;4974685;28;20035;-68
2022/06/23 06:13:14;;;;;;;2.72;1.50;;;;;;;27.23;31.63;98367.16;4974446;28;20403;-67
2022/06/23 06:15:42;;;;;;;4.63;1.50;;;;;;;27.30;31.51;98374.28;4974621;28;20122;-68
2022/06/23 06:18:15;;;;;;;5.63;1.42;;;;;;;27.32;32.14;98367.66;4974254;28;20129;-67
2022/06/23 06:20:41;;;;;;;6.72;1.48;;;;;;;27.34;32.11;98372.78;4974747;28;20042;-68
2022/06/23 06:23:10;;;;;;;4.47;1.20;;;;;;;27.33;31.18;98365.81;4974335;28;20039;-67
2022/06/23 06:25:38;;;;;;;11.10;1.80;;;;;;;27.33;32.12;98371.97;4973544;28;20565;-68
2022/06/23 06:28:23;;;;;;;5.50;1.42;;;;;;;27.34;31.12;98370.09;4973495;28;20039;-67
2022/06/23 06:31:01;;;;;;;4.57;1.70;;;;;;;27.31;30.09;98367.88;4992052;28;20527;-67
2022/06/23 06:33:33;;;;;;;6.47;1.70;;;;;;;27.31;30.91;98366.03;5015276;28;20025;-67
2022/06/23 06:35:59;;;;;;;7.93;1.90;;;;;;;27.30;31.67;98366.25;4998323;28;20238;-67
2022/06/23 06:38:24;;;;;;;9.95;2.00;;;;;;;27.28;31.59;98374.50;5014030;28;20036;-66
2022/06/23 06:40:51;;;;;;;5.75;1.90;;;;;;;27.25;32.24;98378.47;4997498;28;20021;-68
2022/06/23 06:43:19;;;;;;;9.90;2.58;;;;;;;27.24;32.55;98384.06;4997496;28;20084;-67
2022/06/23 06:45:44;;;;;;;;;;;;;;;27.24;32.32;98394.78;4998146;28;20117;-66
2022/06/23 06:48:18;;;;;;;5.97;2.15;;;;;;;27.15;31.92;98402.38;5014296;28;19949;-67
2022/06/23 06:50:45;;;;;;;17.38;2.55;;;;;;;27.15;32.67;98417.59;4998170;28;20056;-68
2022/06/23 06:53:23;;;;;;;6.47;2.05;;;;;;;27.10;33.25;98423.66;4997480;28;20025;-68
2022/06/23 06:55:51;;;;;;;7.65;2.20;;;;;;;27.02;33.68;98424.00;4997402;28;20045;-67
2022/06/23 06:58:26;;;;;;;10.93;2.50;;;;;;;27.01;33.66;98439.25;4997501;28;20408;-70
2022/06/23 07:01:05;;;;;;;9.52;2.70;;;;;;;26.99;34.01;98448.56;5014083;28;20034;-67
2022/06/23 07:03:30;;;;;;;14.32;2.80;;;;;;;26.96;33.29;98460.53;4996765;28;20080;-68
2022/06/23 07:06:02;;;;;;;6.93;2.28;;;;;;;26.98;33.62;98479.91;4997318;28;20037;-67
2022/06/23 07:08:42;;;;;;;11.90;2.70;;;;;;;26.97;34.55;98483.63;4997114;28;20053;-68
2022/06/23 07:11:26;;;;;;;11.20;2.65;;;;;;;26.91;34.50;98492.56;4997395;28;20113;-67
2022/06/23 07:14:11;;;;;;;9.75;2.65;;;;;;;26.94;35.21;98518.09;4998261;28;20037;-68
2022/06/23 07:16:47;;;;;;;9.60;2.65;;;;;;;26.90;35.74;98525.75;5013504;28;20177;-70
2022/06/23 07:19:32;;;;;;;9.00;2.50;;;;;;;26.87;36.54;98531.56;5013221;28;20508;-69
2022/06/23 07:22:11;;;;;;;10.10;2.60;;;;;;;26.83;37.23;98528.50;5013481;28;20034;-68
2022/06/23 07:24:54;;;;;;;8.25;2.35;;;;;;;26.82;37.22;98526.91;4996714;28;20029;-68
2022/06/23 07:27:22;;;;;;;7.75;2.70;;;;;;;26.83;37.80;98547.25;4998637;28;20112;-69
2022/06/23 07:30:02;;;;;;;8.05;2.40;;;;;;;26.83;37.64;98554.47;5029473;28;20470;-68
2022/06/23 07:32:41;;;;;;;9.55;2.40;;;;;;;26.82;38.10;98553.69;5013301;28;20489;-67
2022/06/23 07:35:49;;;;;;;6.70;2.28;;;;;;;26.82;37.89;98559.03;4997621;28;20022;-69
2022/06/23 07:38:14;;;;;;;7.03;2.30;;;;;;;26.83;38.33;98563.31;4973046;28;20034;-67
2022/06/23 07:40:58;;;;;;;9.20;4.00;;;;;;;26.82;37.91;98558.19;4973144;28;20038;-68
2022/06/23 07:43:27;;;;;;;5.57;2.90;;;;;;;26.83;38.08;98562.53;4972943;28;20031;-67
2022/06/23 07:45:55;;;;;;;5.50;2.88;;;;;;;26.83;39.20;98560.66;4956579;28;20101;-67
2022/06/23 07:48:21;;;;;;;11.52;2.70;;;;;;;26.79;38.76;98559.47;4956643;28;20035;-68
2022/06/23 07:50:46;;;;;;;4.72;2.47;;;;;;;26.73;38.02;98540.84;4972863;28;20051;-68
2022/06/23 07:53:34;;;;;;;5.05;2.47;;;;;;;26.70;37.37;98540.22;4971890;28;20042;-67
2022/06/23 07:56:00;;;;;;;7.38;2.38;;;;;;;26.64;37.73;98529.59;4956615;28;20532;-67
2022/06/23 07:58:28;;;;;;;4.18;2.10;;;;;;;26.60;37.34;98501.63;4956508;28;20098;-68
2022/06/23 08:01:24;;;;;;;6.28;2.17;;;;;;;26.60;36.46;98472.19;4972428;28;20031;-67
2022/06/23 08:04:03;;;;;;;6.43;1.98;;;;;;;26.54;36.73;98458.66;4972216;28;20498;-67
2022/06/23 08:06:29;;;;;;;4.88;1.67;;;;;;;26.50;36.92;98462.88;4956334;28;20221;-67
2022/06/23 08:08:56;;;;;;;3.03;1.50;;;;;;;26.49;37.48;98487.97;4956180;28;20101;-67
2022/06/23 08:14:11;;;;;;;3.58;1.40;;;;;;;26.44;38.73;98487.00;5012352;28;20083;-67
2022/06/23 08:16:51;;;;;;;3.45;1.60;;;;;;;26.43;39.55;98462.13;4995895;28;20041;-69
2022/06/23 08:19:19;;;;;;;6.85;1.58;;;;;;;26.37;39.65;98430.91;5012461;28;20064;-67
2022/06/23 08:21:47;;;;;;;;;;;;;;;26.33;39.70;98427.88;5012298;28;20545;-67
2022/06/23 08:24:15;;;;;;;3.33;1.65;;;;;;;26.31;39.03;98431.81;5013267;28;19917;-67
2022/06/23 08:26:43;;;;;;;3.65;1.50;;;;;;;26.34;38.91;98447.44;4996213;28;20026;-67
2022/06/23 08:29:12;;;;;;;2.92;1.40;;;;;;;26.35;38.48;98449.06;5011984;28;20025;-67
2022/06/23 08:31:38;;;;;;;3.50;1.55;;;;;;;26.38;39.68;98440.59;4995655;28;20041;-67
2022/06/23 08:34:03;;;;;;;3.45;1.55;;;;;;;26.43;40.46;98450.63;5011934;28;20050;-68
2022/06/23 08:36:46;;;;;;;4.13;1.67;;;;;;;26.44;41.64;98446.88;4995899;28;20088;-67
2022/06/23 08:39:25;;;;;;;4.55;1.42;;;;;;;26.45;40.67;98440.50;5011897;28;20041;-67
2022/06/23 08:41:59;;;;;;;6.70;1.52;;;;;;;26.45;40.77;98446.66;4995558;28;20036;-68
2022/06/23 08:44:56;;;;;;;2.85;1.40;;;;;;;26.43;41.19;98435.38;5011408;28;20520;-67
2022/06/23 08:47:43;;;;;;;3.78;1.58;;;;;;;26.45;41.87;98449.31;4998015;28;20464;-67
2022/06/23 08:50:34;;;;;;;4.18;1.40;;;;;;;26.49;41.54;98457.75;5014384;28;20042;-68
2022/06/23 08:53:28;;;;;;;5.97;1.70;;;;;;;26.54;41.81;98469.38;4997971;28;20030;-67
2022/06/23 08:56:14;;;;;;;4.30;1.30;;;;;;;26.56;42.05;98468.34;5020486;28;20182;-68
2022/06/23 08:58:52;;;;;;;3.90;1.37;;;;;;;26.55;42.37;98483.56;5011070;28;20045;-68
2022/06/23 09:01:31;;;;;;;4.13;1.40;;;;;;;26.57;42.90;98494.03;4995684;28;20706;-67
2022/06/23 09:04:34;;;;;;;2.63;1.52;;;;;;;26.62;42.11;98503.03;4995002;28;20040;-67
2022/06/23 09:07:07;;;;;;;3.83;1.50;;;;;;;26.70;42.51;98507.28;5012589;28;20497;-68
2022/06/23 09:09:41;;;;;;;3.90;1.33;;;;;;;26.69;42.54;98505.66;5011218;28;20080;-67
2022/06/23 09:12:10;;;;;;;5.28;1.42;;;;;;;26.73;42.55;98509.53;4995060;28;20033;-69
2022/06/23 09:15:20;;;;;;;4.68;1.58;;;;;;;26.80;43.52;98498.72;4994988;28;20523;-71
2022/06/23 09:17:45;;;;;;;2.90;1.42;;;;;;;26.86;43.61;98487.09;4955259;28;20046;-69
2022/06/23 09:20:23;;;;;;;3.97;1.60;;;;;;;26.89;43.78;98478.59;4971462;28;20426;-68
2022/06/23 09:23:04;;;;;;;4.13;1.17;;;;;;;26.89;43.58;98467.88;4955180;28;20046;-68
2022/06/23 09:25:48;;;;;;;4.70;1.40;;;;;;;26.89;42.24;98443.78;4955497;28;20030;-69
2022/06/23 09:28:15;;;;;;;5.38;1.58;;;;;;;26.87;43.28;98451.25;4971259;28;20134;-68
2022/06/23 09:31:09;;;;;;;5.15;1.60;;;;;;;26.84;43.48;98454.38;4971161;28;20093;-68
2022/06/23 09:33:57;;;;;;;9.30;1.38;;;;;;;26.78;43.35;98436.53;4971831;28;20023;-68
2022/06/23 09:36:29;;;;;;;6.28;1.60;;;;;;;26.75;41.94;98453.88;4955147;28;20506;-67
2022/06/23 09:39:00;;;;;;;5.63;1.50;;;;;;;26.74;41.99;98454.09;4971006;28;20096;-68
2022/06/23 09:41:59;;;;;;;5.25;1.40;;;;;;;26.73;42.67;98457.84;4971125;28;20050;-69
2022/06/23 09:44:36;;;;;;;8.02;1.30;;;;;;;26.77;42.20;98459.81;4971257;28;20031;-67
2022/06/23 09:47:23;;;;;;;4.32;1.45;;;;;;;26.84;42.44;98476.59;4971147;28;20047;-68
2022/06/23 09:50:21;;;;;;;9.20;1.40;;;;;;;26.92;42.00;98477.34;4971038;28;20033;-68
2022/06/23 09:53:10;;;;;;;1.90;1.10;;;;;;;27.05;42.61;98482.47;4971287;28;20262;-67
2022/06/23 09:55:57;;;;;;;3.88;1.30;;;;;;;27.20;41.63;98482.84;4995085;28;20100;-67
2022/06/23 09:58:41;;;;;;;1.57;1.17;;;;;;;27.31;42.41;98477.75;5027700;28;20042;-72
2022/06/23 10:01:29;;;;;;;3.08;1.55;;;;;;;27.42;42.17;98482.28;5012198;28;20022;-68
2022/06/23 10:04:22;;;;;;;2.40;1.30;;;;;;;27.45;41.79;98484.50;4994494;28;20053;-68
2022/06/23 10:07:12;;;;;;;3.20;1.42;;;;;;;27.40;39.86;98462.94;5011158;28;20045;-67
2022/06/23 10:10:00;;;;;;;2.83;1.35;;;;;;;27.36;39.69;98453.78;5012084;28;20111;-67
2022/06/23 10:12:47;;;;;;;3.92;1.60;;;;;;;27.31;40.43;98461.66;5011093;28;20029;-68
2022/06/23 10:15:15;;;;;;;3.00;1.20;;;;;;;27.23;41.08;98444.03;5012233;28;20061;-67
2022/06/23 10:17:52;;;;;;;4.22;1.30;;;;;;;27.13;41.94;98435.78;5015883;28;20100;-70
2022/06/23 10:20:40;;;;;;;4.10;1.48;;;;;;;27.13;42.34;98449.97;5014495;28;20026;-67
2022/06/23 10:23:27;;;;;;;3.80;1.27;;;;;;;27.14;41.80;98459.66;5014613;28;20073;-66
2022/06/23 10:26:04;;;;;;;2.90;1.20;;;;;;;27.18;42.15;98460.81;5030755;28;20064;-68
2022/06/23 10:28:54;;;;;;;4.05;1.33;;;;;;;27.26;42.46;98462.34;5030712;28;20081;-67
2022/06/23 10:31:28;;;;;;;3.33;1.50;;;;;;;27.36;42.28;98476.00;5015611;28;20040;-67
2022/06/23 10:34:13;;;;;;;2.22;1.20;;;;;;;27.49;41.22;98482.19;5015507;28;20471;-68
2022/06/23 10:37:09;;;;;;;3.55;1.20;;;;;;;27.56;40.23;98467.63;4997713;28;20122;-68
2022/06/23 10:39:37;;;;;;;2.63;1.30;;;;;;;27.53;39.88;98456.53;5015509;28;20041;-67
2022/06/23 10:42:09;;;;;;;5.28;1.60;;;;;;;27.56;39.66;98454.22;5015790;28;20393;-68
2022/06/23 10:44:49;;;;;;;3.97;1.27;;;;;;;27.61;39.28;98454.31;5013906;28;20401;-67
2022/06/23 10:47:44;;;;;;;1.88;1.17;;;;;;;27.65;38.83;98440.47;4997660;28;20026;-67
2022/06/23 10:50:51;;;;;;;4.60;1.23;;;;;;;27.68;38.47;98442.66;5014135;28;20034;-68
2022/06/23 10:53:28;;;;;;;;;;;;;;;27.70;39.56;98446.72;4963201;28;20043;-68
2022/06/23 10:56:18;;;;;;;2.90;1.40;;;;;;;27.72;39.90;98455.38;4973876;28;19914;-67
2022/06/23 10:59:31;;;;;;;2.97;1.30;;;;;;;27.79;39.78;98457.91;4974361;28;20523;-68
2022/06/23 11:02:21;;;;;;;3.22;1.23;;;;;;;27.95;39.63;98454.53;4860188;29;20060;-68
2022/06/23 11:04:51;;;;;;;5.72;1.40;;;;;;;28.18;39.23;98443.97;4860435;29;20128;-68
2022/06/23 11:07:26;;;;;;;3.50;1.40;;;;;;;28.35;39.53;98420.66;4860224;29;20062;-69
2022/06/23 11:10:29;;;;;;;3.53;1.40;;;;;;;28.55;38.90;98432.84;4860044;29;20053;-68
2022/06/23 11:13:03;;;;;;;6.47;1.65;;;;;;;28.62;38.61;98431.66;4859703;29;20044;-68
2022/06/23 11:15:36;;;;;;;9.70;1.83;;;;;;;28.63;38.31;98427.91;4859675;29;20136;-68
2022/06/23 11:18:11;;;;;;;6.60;2.03;;;;;;;28.72;38.59;98427.50;4844357;29;20553;-67
2022/06/23 11:20:54;;;;;;;4.72;1.90;;;;;;;28.96;38.44;98428.19;4859838;29;20056;-67
2022/06/23 11:23:47;;;;;;;4.55;2.00;;;;;;;29.14;38.85;98425.22;4871232;29;20035;-69
2022/06/23 11:26:15;;;;;;;6.68;2.25;;;;;;;29.21;38.94;98423.22;4915497;29;20472;-68
2022/06/23 11:29:06;;;;;;;5.93;2.20;;;;;;;29.31;38.27;98427.94;4914944;29;20040;-67
2022/06/23 11:32:28;;;;;;;5.72;2.20;;;;;;;29.62;37.85;98423.00;4916027;29;20039;-68
2022/06/23 11:35:24;;;;;;;5.75;2.08;;;;;;;29.78;37.00;98419.41;4918626;29;20036;-67
2022/06/23 11:37:55;;;;;;;2.72;1.50;;;;;;;29.92;36.92;98427.13;4953418;29;20043;-68
2022/06/23 11:40:27;;;;;;;12.23;2.40;;;;;;;29.97;36.19;98427.22;4953733;29;20083;-68
2022/06/23 11:43:18;;;;;;;4.80;2.20;;;;;;;29.98;36.38;98428.81;4953775;29;20043;-67
2022/06/23 11:45:59;;;;;;;6.28;2.38;;;;;;;29.93;36.40;98428.78;4953586;29;20074;-69
2022/06/23 11:48:36;;;;;;;7.95;2.50;;;;;;;29.90;36.57;98431.97;4953658;29;20036;-69
2022/06/23 11:51:01;;;;;;;;;;;;;;;29.86;36.44;98433.53;4953883;29;20534;-68
2022/06/23 11:53:51;;;;;;;6.07;2.38;;;;;;;29.75;36.15;98425.31;4953771;29;19922;-68
2022/06/23 11:56:34;;;;;;;10.27;2.67;;;;;;;29.77;35.85;98431.22;4953410;29;20114;-68
2022/06/23 11:59:18;;;;;;;7.70;2.50;;;;;;;29.68;36.13;98427.38;4953692;29;20051;-68
2022/06/23 12:01:44;;;;;;;12.15;2.88;;;;;;;29.57;36.22;98421.03;4953533;29;20031;-66
2022/06/23 12:04:42;;;;;;;17.30;2.72;;;;;;;29.55;36.12;98420.47;4953495;28;20054;-68
2022/06/23 12:07:11;;;;;;;12.10;3.67;;;;;;;29.53;35.97;98411.84;4953448;28;20455;-68
2022/06/23 12:10:26;;;;;;;17.35;3.38;;;;;;;29.52;36.57;98420.16;4953048;29;20051;-67
2022/06/23 12:12:53;;;;;;;10.85;3.00;;;;;;;29.52;36.51;98410.19;4898796;29;20138;-68
2022/06/23 12:15:32;;;;;;;11.68;2.65;;;;;;;29.51;36.79;98407.75;4899364;29;20178;-67
2022/06/23 12:18:19;;;;;;;7.97;2.90;;;;;;;29.36;37.04;98400.31;4885057;29;20455;-66
2022/06/23 12:20:59;;;;;;;6.47;2.50;;;;;;;29.15;37.59;98402.69;4915019;29;20036;-77
2022/06/23 12:23:30;;;;;;;8.65;2.78;;;;;;;28.97;37.85;98402.94;4914960;29;20040;-79
2022/06/23 12:25:55;;;;;;;7.03;2.75;;;;;;;28.79;38.37;98399.44;4899511;29;20036;-76
2022/06/23 12:28:48;;;;;;;7.00;2.85;;;;;;;28.62;38.84;98406.66;4914635;29;20099;-76
2022/06/23 12:31:37;;;;;;;8.23;2.55;;;;;;;28.49;38.97;98399.72;4914922;29;20036;-78